EHWO/WOE METAR and TAF weather

Enter ICAO airport designator
Station Type Date Time Source
EHWO METAR 2021/10/20 07:25 UTC NOAA

EHWO 200725Z AUTO 19007KT 140V240 9999 -RADZ FEW026 OVC086 15/14 Q1004 BLU


Station Type Date Time Source
EHWO Decoded METAR 2021/10/20 07:25 UTC NOAA

Woensdrecht, Netherlands (EHWO) 51-27N 004-20E 17M
Oct 20, 2021 - 03:25 AM EDT / 2021.10.20 0725 UTC
Wind: from the S (190 degrees) at 8 MPH (7 KT) (direction variable):0
Visibility: greater than 7 mile(s):0
Sky conditions: overcast
Weather: light rain, drizzle
Temperature: 59 F (15 C)
Dew Point: 57 F (14 C)
Relative Humidity: 93%
Pressure (altimeter): 29.65 in. Hg (1004 hPa)
ob: EHWO 200725Z AUTO 19007KT 140V240 9999 -RADZ FEW026 OVC086 15/14 Q1004 BLU
cycle: 7

Station Type Date Time Source
EHWO TAF 2021/10/20 05:06 UTC NOAA

TAF TAF COR EHWO 200446Z 2005/2017 21010KT CAVOK
BECMG 2006/2009 21015G25KT SCT015 BKN020
TEMPO 2006/2011 4000 RA SHRA SCT010 SCT020CB BKN030
BECMG 2011/2013 SCT025
TEMPO 2011/2017 23017G30KT 4000 SHRA FEW015 SCT025CB PROB30
TEMPO 2014/2017 2500 TSRA SCT015 SCT020CB

Example: see airport list